createdAt,value
2018-12-27T00:00:02.753Z,71.30
2018-12-27T00:03:07.748Z,71.90
2018-12-27T00:06:12.767Z,72.30
2018-12-27T00:09:17.761Z,72.30
2018-12-27T00:12:22.613Z,72.10
2018-12-27T00:15:27.580Z,72.00
2018-12-27T00:18:32.767Z,71.70
2018-12-27T00:21:37.726Z,71.90
2018-12-27T00:24:42.590Z,73.10
2018-12-27T00:27:47.513Z,72.50
2018-12-27T00:30:52.568Z,72.50
2018-12-27T00:33:57.669Z,72.00
2018-12-27T00:37:03.181Z,71.40
2018-12-27T00:40:08.453Z,71.50
2018-12-27T00:43:13.585Z,71.70
2018-12-27T00:46:18.725Z,71.60
2018-12-27T00:49:23.969Z,71.70
2018-12-27T00:52:29.015Z,71.60
2018-12-27T00:55:34.125Z,71.30
2018-12-27T00:58:39.824Z,71.40
2018-12-27T01:01:45.253Z,71.20
2018-12-27T01:04:50.459Z,71.30
2018-12-27T01:07:55.315Z,71.20
2018-12-27T01:11:00.589Z,71.60
2018-12-27T01:14:05.924Z,72.00
2018-12-27T01:17:11.022Z,72.30
2018-12-27T01:20:16.068Z,72.30
2018-12-27T01:23:21.685Z,71.60
2018-12-27T01:26:26.753Z,71.30
2018-12-27T01:29:31.889Z,71.10
2018-12-27T01:32:36.863Z,71.30
2018-12-27T01:35:42.348Z,71.50
2018-12-27T01:38:47.349Z,71.50
2018-12-27T01:41:52.457Z,71.20
2018-12-27T01:44:57.570Z,70.80
2018-12-27T01:48:02.565Z,70.40
2018-12-27T01:51:07.801Z,70.60
2018-12-27T01:54:12.853Z,70.50
2018-12-27T01:57:18.455Z,70.40
2018-12-27T02:00:25.038Z,70.60
2018-12-27T02:03:30.245Z,70.10
2018-12-27T02:06:35.588Z,70.60
2018-12-27T02:09:41.029Z,70.80
2018-12-27T02:12:46.159Z,70.90
2018-12-27T02:15:51.421Z,70.80
2018-12-27T02:18:56.416Z,70.70
2018-12-27T02:22:01.557Z,70.60
2018-12-27T02:25:06.710Z,70.80
2018-12-27T02:28:11.823Z,70.60
2018-12-27T02:31:17.242Z,70.40
2018-12-27T02:34:22.445Z,70.30
2018-12-27T02:37:27.512Z,70.20
2018-12-27T02:40:32.662Z,70.70
2018-12-27T02:43:37.786Z,70.60
2018-12-27T02:46:42.887Z,70.40
2018-12-27T02:49:47.872Z,70.50
2018-12-27T02:52:52.977Z,70.40
2018-12-27T02:55:57.948Z,70.40
2018-12-27T02:59:03.376Z,70.40
2018-12-27T03:02:08.752Z,71.00
2018-12-27T03:05:14.384Z,70.70
2018-12-27T03:08:19.560Z,71.10
2018-12-27T03:11:24.709Z,70.90
2018-12-27T03:14:29.795Z,70.80
2018-12-27T03:17:34.937Z,70.50
2018-12-27T03:20:40.080Z,70.50
2018-12-27T03:23:45.373Z,70.60
2018-12-27T03:26:50.358Z,70.70
2018-12-27T03:29:55.586Z,70.60
2018-12-27T03:33:00.823Z,71.00
2018-12-27T03:36:05.928Z,71.00
2018-12-27T03:39:10.983Z,70.70
2018-12-27T03:42:16.211Z,70.80
2018-12-27T03:45:21.212Z,70.90
2018-12-27T03:48:26.358Z,70.70
2018-12-27T03:51:32.029Z,70.70
2018-12-27T03:54:37.173Z,70.60
2018-12-27T03:57:42.544Z,71.10
2018-12-27T04:00:47.784Z,71.20
2018-12-27T04:04:01.042Z,71.20
2018-12-27T04:06:59.688Z,71.30
2018-12-27T04:10:04.931Z,71.10
2018-12-27T04:13:09.961Z,71.10
2018-12-27T04:16:14.919Z,70.90
2018-12-27T04:19:19.990Z,71.50
2018-12-27T04:22:25.064Z,72.00
2018-12-27T04:25:31.070Z,72.70
2018-12-27T04:28:36.203Z,72.30
2018-12-27T04:31:41.979Z,72.60
2018-12-27T04:34:47.220Z,72.80
2018-12-27T04:37:52.448Z,73.30
2018-12-27T04:40:57.378Z,73.20
2018-12-27T04:44:02.946Z,73.00
2018-12-27T04:47:08.083Z,72.70
2018-12-27T04:50:12.992Z,72.70
2018-12-27T04:53:18.062Z,72.50
2018-12-27T04:56:22.987Z,72.50
2018-12-27T04:59:28.029Z,72.60
2018-12-27T05:02:32.891Z,72.70
2018-12-27T05:05:37.828Z,72.60
2018-12-27T05:08:42.837Z,72.80
2018-12-27T05:11:47.681Z,72.60
2018-12-27T05:14:52.716Z,72.60
2018-12-27T05:17:57.544Z,72.50
2018-12-27T05:21:02.537Z,72.20
2018-12-27T05:24:07.727Z,72.20
2018-12-27T05:27:12.666Z,72.00
2018-12-27T05:30:17.475Z,71.90
2018-12-27T05:33:22.576Z,71.90
2018-12-27T05:36:27.642Z,72.00
2018-12-27T05:39:32.618Z,72.10
2018-12-27T05:42:37.505Z,71.90
2018-12-27T05:45:42.589Z,72.00
2018-12-27T05:48:47.533Z,72.00
2018-12-27T05:51:52.501Z,72.30
2018-12-27T05:54:57.801Z,72.60
2018-12-27T05:58:02.857Z,72.20
2018-12-27T06:01:07.957Z,72.50
2018-12-27T06:04:12.882Z,72.00
2018-12-27T06:07:17.841Z,72.00
2018-12-27T06:10:22.733Z,72.10
2018-12-27T06:13:46.539Z,72.50
2018-12-27T06:16:51.725Z,72.00
2018-12-27T06:19:56.818Z,72.30
2018-12-27T06:23:01.727Z,72.30
2018-12-27T06:26:06.665Z,72.30
2018-12-27T06:29:11.613Z,72.30
2018-12-27T06:32:16.831Z,72.10
2018-12-27T06:35:21.770Z,72.20
2018-12-27T06:38:26.600Z,72.10
2018-12-27T06:41:50.437Z,72.10
2018-12-27T06:44:55.401Z,71.70
2018-12-27T06:48:00.237Z,72.10
2018-12-27T06:51:05.291Z,72.10
2018-12-27T06:54:10.204Z,71.90
2018-12-27T06:57:15.577Z,72.00
2018-12-27T07:00:20.474Z,71.50
2018-12-27T07:03:25.439Z,71.70
2018-12-27T07:06:30.365Z,72.10
2018-12-27T07:09:35.250Z,71.90
2018-12-27T07:12:40.145Z,71.70
2018-12-27T07:15:45.201Z,71.40
2018-12-27T07:18:50.319Z,71.10
2018-12-27T07:21:55.295Z,71.40
2018-12-27T07:25:00.498Z,71.50
2018-12-27T07:28:05.452Z,72.20
2018-12-27T07:31:10.302Z,72.20
2018-12-27T07:34:15.296Z,71.20
2018-12-27T07:37:20.180Z,70.00
2018-12-27T07:40:25.192Z,69.60
2018-12-27T07:43:30.283Z,68.90
2018-12-27T07:46:35.299Z,68.80
2018-12-27T07:49:40.127Z,67.90
2018-12-27T07:52:45.041Z,67.40
2018-12-27T07:55:50.176Z,67.00
2018-12-27T07:58:55.113Z,66.40
2018-12-27T08:02:18.866Z,66.10
2018-12-27T08:05:23.843Z,65.70
2018-12-27T08:08:28.920Z,65.60
2018-12-27T08:11:33.957Z,65.20
2018-12-27T08:14:38.965Z,64.30
2018-12-27T08:17:43.845Z,64.40
2018-12-27T08:20:48.938Z,64.20
2018-12-27T08:23:54.148Z,64.20
2018-12-27T08:27:17.941Z,63.90
2018-12-27T08:30:23.058Z,63.40
2018-12-27T08:33:28.076Z,63.80
2018-12-27T08:36:33.084Z,63.50
2018-12-27T08:39:38.045Z,63.60
2018-12-27T08:42:43.127Z,63.40
2018-12-27T08:45:48.388Z,62.70
2018-12-27T08:48:53.492Z,62.70
2018-12-27T08:51:58.479Z,62.40
2018-12-27T08:55:03.591Z,62.10
2018-12-27T08:58:08.824Z,62.20
2018-12-27T09:01:13.785Z,61.70
2018-12-27T09:04:19.036Z,61.80
2018-12-27T09:07:24.148Z,62.00
2018-12-27T09:10:29.128Z,62.00
2018-12-27T09:13:34.246Z,61.90
2018-12-27T09:16:39.167Z,61.70
2018-12-27T09:19:44.322Z,61.60
2018-12-27T09:22:49.312Z,61.50
2018-12-27T09:25:54.481Z,61.90
2018-12-27T09:28:59.725Z,61.90
2018-12-27T09:32:05.428Z,62.40
2018-12-27T09:35:10.467Z,62.70
2018-12-27T09:38:15.329Z,62.60
2018-12-27T09:41:20.248Z,62.70
2018-12-27T09:44:25.246Z,62.70
2018-12-27T09:47:30.105Z,62.60
2018-12-27T09:50:35.045Z,62.20
2018-12-27T09:53:40.031Z,61.60
2018-12-27T09:56:46.193Z,61.30
2018-12-27T09:59:51.188Z,61.00
2018-12-27T10:02:56.053Z,61.00
2018-12-27T10:06:01.147Z,60.70
2018-12-27T10:09:07.321Z,60.10
2018-12-27T10:12:12.380Z,59.40
2018-12-27T10:15:17.295Z,58.60
2018-12-27T10:18:31.258Z,58.20
2018-12-27T10:21:36.211Z,57.80
2018-12-27T10:24:42.349Z,58.70
2018-12-27T10:27:47.305Z,58.30
2018-12-27T10:30:59.611Z,58.50
2018-12-27T10:33:59.558Z,58.70
2018-12-27T10:37:04.577Z,59.10
2018-12-27T10:40:11.733Z,58.60
2018-12-27T10:43:16.785Z,58.80
2018-12-27T10:46:21.720Z,58.80
2018-12-27T10:49:26.742Z,58.40
2018-12-27T10:52:31.985Z,58.60
2018-12-27T10:55:36.924Z,58.40
2018-12-27T10:58:41.825Z,58.50
2018-12-27T11:01:47.091Z,58.30
2018-12-27T11:04:52.245Z,58.30
2018-12-27T11:07:57.177Z,58.20
2018-12-27T11:11:04.137Z,58.20
2018-12-27T11:14:10.871Z,57.80
2018-12-27T11:17:15.701Z,57.80
2018-12-27T11:20:20.802Z,57.70
2018-12-27T11:23:25.783Z,47.80
2018-12-27T11:26:30.776Z,39.20
2018-12-27T11:29:35.945Z,36.80
2018-12-27T11:32:41.068Z,37.40
2018-12-27T11:35:46.150Z,38.70
2018-12-27T11:38:51.160Z,37.70
2018-12-27T11:41:56.120Z,30.70
2018-12-27T11:45:00.939Z,27.60
2018-12-27T11:48:05.922Z,23.20
2018-12-27T11:51:10.964Z,21.10
2018-12-27T11:54:15.977Z,18.80
2018-12-27T11:57:21.158Z,19.60
2018-12-27T12:00:26.139Z,18.30
2018-12-27T12:03:31.285Z,17.50
2018-12-27T12:06:36.267Z,18.60
2018-12-27T12:09:41.522Z,21.40
2018-12-27T12:12:46.576Z,22.60
2018-12-27T12:15:51.537Z,22.40
2018-12-27T12:18:56.527Z,20.20
2018-12-27T12:22:01.622Z,19.60
2018-12-27T12:25:08.009Z,20.30
2018-12-27T12:28:12.899Z,22.80
2018-12-27T12:31:17.848Z,24.50
2018-12-27T12:34:22.960Z,23.90
2018-12-27T12:37:28.954Z,22.80
2018-12-27T12:40:33.796Z,21.50
2018-12-27T12:43:38.997Z,19.70
2018-12-27T12:46:44.198Z,18.70
2018-12-27T12:49:49.001Z,18.30
2018-12-27T12:52:53.952Z,18.20
2018-12-27T12:55:59.084Z,17.60
2018-12-27T12:59:04.038Z,17.80
2018-12-27T13:02:09.130Z,17.50
2018-12-27T13:05:14.119Z,17.00
2018-12-27T13:08:18.986Z,17.20
2018-12-27T13:11:23.985Z,18.70
2018-12-27T13:14:28.808Z,21.00
2018-12-27T13:17:33.778Z,22.40
2018-12-27T13:20:38.915Z,22.40
2018-12-27T13:23:46.065Z,21.20
2018-12-27T13:26:51.592Z,20.20
2018-12-27T13:29:56.486Z,19.20
2018-12-27T13:33:01.546Z,20.40
2018-12-27T13:36:06.930Z,21.90
2018-12-27T13:39:12.202Z,22.10
2018-12-27T13:42:17.227Z,21.90
2018-12-27T13:45:22.397Z,20.80
2018-12-27T13:48:27.497Z,20.10
2018-12-27T13:51:32.451Z,19.70
2018-12-27T13:54:37.415Z,20.20
2018-12-27T13:57:42.267Z,19.60
2018-12-27T14:00:47.290Z,19.90
2018-12-27T14:03:52.409Z,20.00
2018-12-27T14:06:57.372Z,20.20
2018-12-27T14:10:02.439Z,20.40
2018-12-27T14:13:07.429Z,20.40
2018-12-27T14:16:12.592Z,20.80
2018-12-27T14:19:17.531Z,21.00
2018-12-27T14:22:22.555Z,21.10
2018-12-27T14:25:27.487Z,21.80
2018-12-27T14:28:32.742Z,23.00
2018-12-27T14:31:37.549Z,23.90
2018-12-27T14:34:42.604Z,24.80
2018-12-27T14:37:47.703Z,26.00
2018-12-27T14:40:52.718Z,27.50
2018-12-27T14:43:58.027Z,28.70
2018-12-27T14:47:03.112Z,29.90
2018-12-27T14:50:07.820Z,31.60
2018-12-27T14:53:12.735Z,33.10
2018-12-27T14:56:17.788Z,34.50
2018-12-27T14:59:22.887Z,35.50
2018-12-27T15:02:28.039Z,36.80
2018-12-27T15:05:33.079Z,37.90
2018-12-27T15:08:38.058Z,38.90
2018-12-27T15:11:42.982Z,39.90
2018-12-27T15:14:47.949Z,41.00
2018-12-27T15:17:52.968Z,42.30
2018-12-27T15:20:58.177Z,43.10
2018-12-27T15:24:03.101Z,44.00
2018-12-27T15:27:07.949Z,44.90
2018-12-27T15:30:12.928Z,45.50
2018-12-27T15:33:18.121Z,46.20
2018-12-27T15:36:23.049Z,47.20
2018-12-27T15:39:27.961Z,47.80
2018-12-27T15:42:32.939Z,49.00
2018-12-27T15:45:37.871Z,48.90
2018-12-27T15:48:43.018Z,49.40
2018-12-27T15:51:47.952Z,49.90
2018-12-27T15:54:52.868Z,50.40
2018-12-27T15:57:58.014Z,51.10
2018-12-27T16:01:03.074Z,51.80
2018-12-27T16:04:08.329Z,52.30
2018-12-27T16:07:13.661Z,52.50
2018-12-27T16:10:18.591Z,52.80
2018-12-27T16:13:23.501Z,53.10
2018-12-27T16:16:28.468Z,53.20
2018-12-27T16:19:33.392Z,53.90
2018-12-27T16:22:38.365Z,54.70
2018-12-27T16:25:43.488Z,54.90
2018-12-27T16:28:48.614Z,55.60
2018-12-27T16:31:53.529Z,56.00
2018-12-27T16:34:58.497Z,56.20
2018-12-27T16:38:03.655Z,56.10
2018-12-27T16:41:08.584Z,56.30
2018-12-27T16:44:13.728Z,56.70
2018-12-27T16:47:18.806Z,56.90
2018-12-27T16:50:23.751Z,57.20
2018-12-27T16:53:28.915Z,57.50
2018-12-27T16:56:33.842Z,57.80
2018-12-27T16:59:39.027Z,57.80
2018-12-27T17:02:44.176Z,57.80
2018-12-27T17:05:49.116Z,57.90
2018-12-27T17:08:54.113Z,58.00
2018-12-27T17:11:59.118Z,58.30
2018-12-27T17:15:04.845Z,58.50
2018-12-27T17:18:09.977Z,58.60
2018-12-27T17:21:15.124Z,58.70
2018-12-27T17:24:20.429Z,58.90
2018-12-27T17:27:32.798Z,59.00
2018-12-27T17:30:37.757Z,59.00
2018-12-27T17:33:42.614Z,59.20
2018-12-27T17:36:47.564Z,59.20
2018-12-27T17:39:52.521Z,59.30
2018-12-27T17:42:57.470Z,59.50
2018-12-27T17:46:02.573Z,59.90
2018-12-27T17:49:07.459Z,59.80
2018-12-27T17:52:12.466Z,59.90
2018-12-27T17:55:17.423Z,60.10
2018-12-27T17:58:22.449Z,60.70
2018-12-27T18:01:27.501Z,61.00
2018-12-27T18:04:32.505Z,60.80
2018-12-27T18:07:37.904Z,60.90
2018-12-27T18:10:42.820Z,60.90
2018-12-27T18:13:47.947Z,61.20
2018-12-27T18:16:53.166Z,61.20
2018-12-27T18:19:58.251Z,61.40
2018-12-27T18:23:03.450Z,61.30
2018-12-27T18:26:08.433Z,61.20
2018-12-27T18:29:13.524Z,62.40
2018-12-27T18:32:18.526Z,61.70
2018-12-27T18:35:23.619Z,61.80
2018-12-27T18:38:28.816Z,61.90
2018-12-27T18:41:33.918Z,62.00
2018-12-27T18:44:38.898Z,62.00
2018-12-27T18:47:44.142Z,62.10
2018-12-27T18:50:49.055Z,62.20
2018-12-27T18:53:54.055Z,62.40
2018-12-27T18:56:59.229Z,62.50
2018-12-27T19:00:04.468Z,62.60
2018-12-27T19:03:09.254Z,62.70
2018-12-27T19:06:14.513Z,62.70
2018-12-27T19:09:19.683Z,64.30
2018-12-27T19:13:05.258Z,63.70
2018-12-27T19:16:10.737Z,64.20
2018-12-27T19:19:15.880Z,64.10
2018-12-27T19:22:37.650Z,64.00
2018-12-27T19:25:42.537Z,64.00
2018-12-27T19:28:47.753Z,64.00
2018-12-27T19:31:52.927Z,64.00
2018-12-27T19:35:08.097Z,64.00
2018-12-27T19:38:13.093Z,63.70
2018-12-27T19:41:18.024Z,64.00
2018-12-27T19:44:23.164Z,63.90
2018-12-27T19:47:28.367Z,63.70
2018-12-27T19:50:33.689Z,63.70
2018-12-27T19:53:38.835Z,63.90
2018-12-27T19:56:43.889Z,64.00
2018-12-27T19:59:48.847Z,64.30
2018-12-27T20:02:54.280Z,64.40
2018-12-27T20:05:59.387Z,64.40
2018-12-27T20:09:06.038Z,64.60
2018-12-27T20:12:11.332Z,64.70
2018-12-27T20:15:16.289Z,64.60
2018-12-27T20:18:21.289Z,64.60
2018-12-27T20:21:26.189Z,64.60
2018-12-27T20:24:31.142Z,64.70
2018-12-27T20:27:36.237Z,64.90
2018-12-27T20:30:41.184Z,65.00
2018-12-27T20:33:46.369Z,65.00
2018-12-27T20:36:51.629Z,65.10
2018-12-27T20:39:56.964Z,64.90
2018-12-27T20:43:02.295Z,65.10
2018-12-27T20:46:08.288Z,65.30
2018-12-27T20:49:13.271Z,65.30
2018-12-27T20:52:18.460Z,65.70
2018-12-27T20:55:23.628Z,65.80
2018-12-27T20:58:28.949Z,65.90
2018-12-27T21:01:34.093Z,65.80
2018-12-27T21:04:39.001Z,65.70
2018-12-27T21:07:44.046Z,65.60
2018-12-27T21:10:49.281Z,65.50
2018-12-27T21:13:54.259Z,65.80
2018-12-27T21:16:59.120Z,65.80
2018-12-27T21:20:05.030Z,65.90
2018-12-27T21:23:10.154Z,66.70
2018-12-27T21:26:15.400Z,65.80
2018-12-27T21:29:20.573Z,65.80
2018-12-27T21:32:26.017Z,65.70
2018-12-27T21:35:31.029Z,65.60
2018-12-27T21:38:36.502Z,65.40
2018-12-27T21:41:41.948Z,65.60
2018-12-27T21:44:47.360Z,65.90
2018-12-27T21:47:52.562Z,65.70
2018-12-27T21:50:57.492Z,65.80
2018-12-27T21:54:02.457Z,66.00
2018-12-27T21:57:07.491Z,66.20
2018-12-27T22:00:12.658Z,66.90
2018-12-27T22:03:17.694Z,66.40
2018-12-27T22:06:22.553Z,66.50
2018-12-27T22:09:27.444Z,66.50
2018-12-27T22:12:32.582Z,66.70
2018-12-27T22:15:37.594Z,66.70
2018-12-27T22:18:42.507Z,66.70
2018-12-27T22:21:47.822Z,66.60
2018-12-27T22:24:52.897Z,66.40
2018-12-27T22:27:58.142Z,66.70
2018-12-27T22:31:03.768Z,66.60
2018-12-27T22:34:08.713Z,66.50
2018-12-27T22:37:13.837Z,66.50
2018-12-27T22:40:19.009Z,66.50
2018-12-27T22:43:24.031Z,66.60
2018-12-27T22:46:35.010Z,66.60
2018-12-27T22:49:39.879Z,66.70
2018-12-27T22:52:44.748Z,66.80
2018-12-27T22:55:58.915Z,66.90
2018-12-27T22:59:03.825Z,66.80
2018-12-27T23:02:09.041Z,66.80
2018-12-27T23:05:13.784Z,66.80
2018-12-27T23:08:18.753Z,66.80
2018-12-27T23:11:23.735Z,67.10
2018-12-27T23:14:28.876Z,67.60
2018-12-27T23:17:33.897Z,67.60
2018-12-27T23:20:38.941Z,67.40
2018-12-27T23:23:44.176Z,67.80
2018-12-27T23:26:49.250Z,68.10
2018-12-27T23:29:54.257Z,68.10
2018-12-27T23:32:59.334Z,67.90
2018-12-27T23:36:04.325Z,68.00
2018-12-27T23:39:09.453Z,68.10
2018-12-27T23:42:14.550Z,68.30
2018-12-27T23:45:19.604Z,68.20
2018-12-27T23:48:24.438Z,68.10
2018-12-27T23:51:29.372Z,68.70
2018-12-27T23:54:34.456Z,68.60
2018-12-27T23:57:39.689Z,68.80
